sensor_id;sensor_type;location;lat;lon;timestamp;P1;durP1;ratioP1;P2;durP2;ratioP2
11241;SDS011;5678;52.370;9.006;2023-04-03T00:00:58;0.43;;;0.43;;
11241;SDS011;5678;52.370;9.006;2023-04-03T00:03:27;0.50;;;0.50;;
11241;SDS011;5678;52.370;9.006;2023-04-03T00:05:55;0.40;;;0.40;;
11241;SDS011;5678;52.370;9.006;2023-04-03T00:08:23;0.70;;;0.70;;
11241;SDS011;5678;52.370;9.006;2023-04-03T00:10:51;0.30;;;0.30;;
11241;SDS011;5678;52.370;9.006;2023-04-03T00:13:19;0.47;;;0.47;;
11241;SDS011;5678;52.370;9.006;2023-04-03T00:15:47;0.50;;;0.50;;
11241;SDS011;5678;52.370;9.006;2023-04-03T00:18:15;0.50;;;0.50;;
11241;SDS011;5678;52.370;9.006;2023-04-03T00:20:44;0.50;;;0.50;;
11241;SDS011;5678;52.370;9.006;2023-04-03T00:23:12;0.40;;;0.40;;
11241;SDS011;5678;52.370;9.006;2023-04-03T00:25:41;0.47;;;0.47;;
11241;SDS011;5678;52.370;9.006;2023-04-03T00:28:09;0.50;;;0.50;;
11241;SDS011;5678;52.370;9.006;2023-04-03T00:30:37;0.40;;;0.40;;
11241;SDS011;5678;52.370;9.006;2023-04-03T00:33:05;0.50;;;0.50;;
11241;SDS011;5678;52.370;9.006;2023-04-03T00:35:34;0.30;;;0.30;;
11241;SDS011;5678;52.370;9.006;2023-04-03T00:38:03;0.50;;;0.50;;
11241;SDS011;5678;52.370;9.006;2023-04-03T00:40:33;0.60;;;0.60;;
11241;SDS011;5678;52.370;9.006;2023-04-03T00:43:05;0.50;;;0.50;;
11241;SDS011;5678;52.370;9.006;2023-04-03T00:45:39;0.80;;;0.80;;
11241;SDS011;5678;52.370;9.006;2023-04-03T00:48:09;0.40;;;0.40;;
11241;SDS011;5678;52.370;9.006;2023-04-03T00:50:41;0.60;;;0.60;;
11241;SDS011;5678;52.370;9.006;2023-04-03T00:53:12;0.50;;;0.50;;
11241;SDS011;5678;52.370;9.006;2023-04-03T00:55:43;0.63;;;0.63;;
11241;SDS011;5678;52.370;9.006;2023-04-03T00:58:13;0.60;;;0.60;;
11241;SDS011;5678;52.370;9.006;2023-04-03T01:00:44;0.60;;;0.60;;
11241;SDS011;5678;52.370;9.006;2023-04-03T01:03:17;0.40;;;0.40;;
11241;SDS011;5678;52.370;9.006;2023-04-03T01:05:46;0.50;;;0.50;;
11241;SDS011;5678;52.370;9.006;2023-04-03T01:08:15;0.60;;;0.60;;
11241;SDS011;5678;52.370;9.006;2023-04-03T01:10:43;0.50;;;0.50;;
11241;SDS011;5678;52.370;9.006;2023-04-03T01:13:22;0.53;;;0.53;;
11241;SDS011;5678;52.370;9.006;2023-04-03T01:15:52;0.50;;;0.50;;
11241;SDS011;5678;52.370;9.006;2023-04-03T01:18:21;0.70;;;0.70;;
11241;SDS011;5678;52.370;9.006;2023-04-03T01:21:02;0.50;;;0.50;;
11241;SDS011;5678;52.370;9.006;2023-04-03T01:24:07;0.70;;;0.70;;
11241;SDS011;5678;52.370;9.006;2023-04-03T01:26:40;0.70;;;0.70;;
11241;SDS011;5678;52.370;9.006;2023-04-03T01:29:08;0.60;;;0.60;;
11241;SDS011;5678;52.370;9.006;2023-04-03T01:31:46;0.40;;;0.40;;
11241;SDS011;5678;52.370;9.006;2023-04-03T01:34:19;0.73;;;0.73;;
11241;SDS011;5678;52.370;9.006;2023-04-03T01:36:47;0.50;;;0.50;;
11241;SDS011;5678;52.370;9.006;2023-04-03T01:39:15;0.40;;;0.40;;
11241;SDS011;5678;52.370;9.006;2023-04-03T01:41:43;0.60;;;0.60;;
11241;SDS011;5678;52.370;9.006;2023-04-03T01:44:12;0.70;;;0.70;;
11241;SDS011;5678;52.370;9.006;2023-04-03T01:46:40;0.90;;;0.90;;
11241;SDS011;5678;52.370;9.006;2023-04-03T01:49:09;0.57;;;0.57;;
11241;SDS011;5678;52.370;9.006;2023-04-03T01:51:37;0.60;;;0.60;;
11241;SDS011;5678;52.370;9.006;2023-04-03T01:54:05;0.50;;;0.50;;
11241;SDS011;5678;52.370;9.006;2023-04-03T01:56:33;0.40;;;0.40;;
11241;SDS011;5678;52.370;9.006;2023-04-03T01:59:01;0.50;;;0.50;;
11241;SDS011;5678;52.370;9.006;2023-04-03T02:01:29;0.60;;;0.60;;
11241;SDS011;5678;52.370;9.006;2023-04-03T02:03:57;0.90;;;0.90;;
11241;SDS011;5678;52.370;9.006;2023-04-03T02:06:27;0.70;;;0.70;;
11241;SDS011;5678;52.370;9.006;2023-04-03T02:08:55;0.80;;;0.80;;
11241;SDS011;5678;52.370;9.006;2023-04-03T02:11:23;0.80;;;0.80;;
11241;SDS011;5678;52.370;9.006;2023-04-03T02:13:51;0.73;;;0.73;;
11241;SDS011;5678;52.370;9.006;2023-04-03T02:16:18;0.67;;;0.67;;
11241;SDS011;5678;52.370;9.006;2023-04-03T02:18:46;0.50;;;0.50;;
11241;SDS011;5678;52.370;9.006;2023-04-03T02:21:14;0.60;;;0.60;;
11241;SDS011;5678;52.370;9.006;2023-04-03T02:23:44;0.97;;;0.97;;
11241;SDS011;5678;52.370;9.006;2023-04-03T02:26:12;0.50;;;0.50;;
11241;SDS011;5678;52.370;9.006;2023-04-03T02:28:42;0.80;;;0.80;;
11241;SDS011;5678;52.370;9.006;2023-04-03T02:33:38;0.60;;;0.60;;
11241;SDS011;5678;52.370;9.006;2023-04-03T02:36:07;0.63;;;0.63;;
11241;SDS011;5678;52.370;9.006;2023-04-03T02:38:36;0.77;;;0.77;;
11241;SDS011;5678;52.370;9.006;2023-04-03T02:41:05;0.60;;;0.60;;
11241;SDS011;5678;52.370;9.006;2023-04-03T02:43:35;0.50;;;0.50;;
11241;SDS011;5678;52.370;9.006;2023-04-03T02:46:03;0.67;;;0.67;;
11241;SDS011;5678;52.370;9.006;2023-04-03T02:48:32;0.67;;;0.67;;
11241;SDS011;5678;52.370;9.006;2023-04-03T02:51:00;0.70;;;0.70;;
11241;SDS011;5678;52.370;9.006;2023-04-03T02:53:28;0.87;;;0.87;;
11241;SDS011;5678;52.370;9.006;2023-04-03T02:55:56;1.00;;;1.00;;
11241;SDS011;5678;52.370;9.006;2023-04-03T02:58:25;0.70;;;0.70;;
11241;SDS011;5678;52.370;9.006;2023-04-03T03:00:53;0.70;;;0.70;;
11241;SDS011;5678;52.370;9.006;2023-04-03T03:03:21;0.77;;;0.77;;
11241;SDS011;5678;52.370;9.006;2023-04-03T03:05:49;0.80;;;0.80;;
11241;SDS011;5678;52.370;9.006;2023-04-03T03:08:17;0.87;;;0.87;;
11241;SDS011;5678;52.370;9.006;2023-04-03T03:10:46;0.90;;;0.90;;
11241;SDS011;5678;52.370;9.006;2023-04-03T03:13:14;0.67;;;0.67;;
11241;SDS011;5678;52.370;9.006;2023-04-03T03:15:43;1.00;;;1.00;;
11241;SDS011;5678;52.370;9.006;2023-04-03T03:18:11;0.90;;;0.90;;
11241;SDS011;5678;52.370;9.006;2023-04-03T03:20:39;0.87;;;0.87;;
11241;SDS011;5678;52.370;9.006;2023-04-03T03:23:07;0.60;;;0.60;;
11241;SDS011;5678;52.370;9.006;2023-04-03T03:25:37;0.90;;;0.90;;
11241;SDS011;5678;52.370;9.006;2023-04-03T03:28:05;0.60;;;0.60;;
11241;SDS011;5678;52.370;9.006;2023-04-03T03:30:33;1.20;;;1.20;;
11241;SDS011;5678;52.370;9.006;2023-04-03T03:33:03;0.80;;;0.80;;
11241;SDS011;5678;52.370;9.006;2023-04-03T03:35:32;0.90;;;0.90;;
11241;SDS011;5678;52.370;9.006;2023-04-03T03:38:00;1.20;;;1.20;;
11241;SDS011;5678;52.370;9.006;2023-04-03T03:40:28;0.63;;;0.63;;
11241;SDS011;5678;52.370;9.006;2023-04-03T03:42:56;0.80;;;0.80;;
11241;SDS011;5678;52.370;9.006;2023-04-03T03:45:24;0.80;;;0.80;;
11241;SDS011;5678;52.370;9.006;2023-04-03T03:47:52;1.00;;;1.00;;
11241;SDS011;5678;52.370;9.006;2023-04-03T03:50:22;1.33;;;1.33;;
11241;SDS011;5678;52.370;9.006;2023-04-03T03:52:50;0.97;;;0.97;;
11241;SDS011;5678;52.370;9.006;2023-04-03T03:55:18;0.77;;;0.77;;
11241;SDS011;5678;52.370;9.006;2023-04-03T03:57:46;0.80;;;0.80;;
11241;SDS011;5678;52.370;9.006;2023-04-03T04:00:14;0.60;;;0.60;;
11241;SDS011;5678;52.370;9.006;2023-04-03T04:02:42;0.90;;;0.90;;
11241;SDS011;5678;52.370;9.006;2023-04-03T04:05:11;0.60;;;0.60;;
11241;SDS011;5678;52.370;9.006;2023-04-03T04:07:40;0.97;;;0.97;;
11241;SDS011;5678;52.370;9.006;2023-04-03T04:10:08;0.90;;;0.90;;
11241;SDS011;5678;52.370;9.006;2023-04-03T04:12:37;0.73;;;0.73;;
11241;SDS011;5678;52.370;9.006;2023-04-03T04:15:05;1.07;;;1.07;;
11241;SDS011;5678;52.370;9.006;2023-04-03T04:17:34;1.13;;;1.13;;
11241;SDS011;5678;52.370;9.006;2023-04-03T04:20:02;0.83;;;0.83;;
11241;SDS011;5678;52.370;9.006;2023-04-03T04:22:31;1.13;;;1.13;;
11241;SDS011;5678;52.370;9.006;2023-04-03T04:25:00;0.90;;;0.90;;
11241;SDS011;5678;52.370;9.006;2023-04-03T04:27:28;0.87;;;0.87;;
11241;SDS011;5678;52.370;9.006;2023-04-03T04:29:56;0.90;;;0.90;;
11241;SDS011;5678;52.370;9.006;2023-04-03T04:32:24;0.80;;;0.80;;
11241;SDS011;5678;52.370;9.006;2023-04-03T04:34:52;0.60;;;0.60;;
11241;SDS011;5678;52.370;9.006;2023-04-03T04:37:21;1.10;;;1.10;;
11241;SDS011;5678;52.370;9.006;2023-04-03T04:39:48;1.00;;;1.00;;
11241;SDS011;5678;52.370;9.006;2023-04-03T04:42:18;0.70;;;0.70;;
11241;SDS011;5678;52.370;9.006;2023-04-03T04:44:46;1.10;;;1.10;;
11241;SDS011;5678;52.370;9.006;2023-04-03T04:47:14;0.87;;;0.87;;
11241;SDS011;5678;52.370;9.006;2023-04-03T04:49:42;1.00;;;1.00;;
11241;SDS011;5678;52.370;9.006;2023-04-03T04:52:10;0.80;;;0.80;;
11241;SDS011;5678;52.370;9.006;2023-04-03T04:54:38;1.00;;;1.00;;
11241;SDS011;5678;52.370;9.006;2023-04-03T04:57:05;1.10;;;1.10;;
11241;SDS011;5678;52.370;9.006;2023-04-03T04:59:35;0.83;;;0.83;;
11241;SDS011;5678;52.370;9.006;2023-04-03T05:02:03;1.03;;;1.03;;
11241;SDS011;5678;52.370;9.006;2023-04-03T05:04:31;0.87;;;0.87;;
11241;SDS011;5678;52.370;9.006;2023-04-03T05:06:59;0.83;;;0.83;;
11241;SDS011;5678;52.370;9.006;2023-04-03T05:09:27;0.80;;;0.80;;
11241;SDS011;5678;52.370;9.006;2023-04-03T05:11:55;0.80;;;0.80;;
11241;SDS011;5678;52.370;9.006;2023-04-03T05:14:23;1.07;;;1.07;;
11241;SDS011;5678;52.370;9.006;2023-04-03T05:16:52;0.90;;;0.90;;
11241;SDS011;5678;52.370;9.006;2023-04-03T05:19:20;0.97;;;0.97;;
11241;SDS011;5678;52.370;9.006;2023-04-03T05:21:48;1.20;;;1.20;;
11241;SDS011;5678;52.370;9.006;2023-04-03T05:24:16;1.10;;;1.10;;
11241;SDS011;5678;52.370;9.006;2023-04-03T05:26:45;1.13;;;1.13;;
11241;SDS011;5678;52.370;9.006;2023-04-03T05:29:13;1.00;;;1.00;;
11241;SDS011;5678;52.370;9.006;2023-04-03T05:31:41;1.20;;;1.20;;
11241;SDS011;5678;52.370;9.006;2023-04-03T05:34:11;1.10;;;1.10;;
11241;SDS011;5678;52.370;9.006;2023-04-03T05:36:39;1.33;;;1.33;;
11241;SDS011;5678;52.370;9.006;2023-04-03T05:39:07;1.10;;;1.10;;
11241;SDS011;5678;52.370;9.006;2023-04-03T05:41:38;1.30;;;1.30;;
11241;SDS011;5678;52.370;9.006;2023-04-03T05:44:06;1.10;;;1.10;;
11241;SDS011;5678;52.370;9.006;2023-04-03T05:46:34;0.93;;;0.93;;
11241;SDS011;5678;52.370;9.006;2023-04-03T05:49:02;1.00;;;1.00;;
11241;SDS011;5678;52.370;9.006;2023-04-03T05:51:33;1.03;;;1.03;;
11241;SDS011;5678;52.370;9.006;2023-04-03T05:54:05;1.00;;;1.00;;
11241;SDS011;5678;52.370;9.006;2023-04-03T05:56:38;0.70;;;0.70;;
11241;SDS011;5678;52.370;9.006;2023-04-03T05:59:06;0.70;;;0.70;;
11241;SDS011;5678;52.370;9.006;2023-04-03T06:01:34;0.70;;;0.70;;
11241;SDS011;5678;52.370;9.006;2023-04-03T06:04:02;0.77;;;0.77;;
11241;SDS011;5678;52.370;9.006;2023-04-03T06:06:43;0.50;;;0.50;;
11241;SDS011;5678;52.370;9.006;2023-04-03T06:09:13;0.70;;;0.70;;
11241;SDS011;5678;52.370;9.006;2023-04-03T06:11:42;0.60;;;0.60;;
11241;SDS011;5678;52.370;9.006;2023-04-03T06:14:10;0.30;;;0.30;;
11241;SDS011;5678;52.370;9.006;2023-04-03T06:16:38;0.50;;;0.50;;
11241;SDS011;5678;52.370;9.006;2023-04-03T06:19:06;0.40;;;0.40;;
11241;SDS011;5678;52.370;9.006;2023-04-03T06:21:36;0.57;;;0.57;;
11241;SDS011;5678;52.370;9.006;2023-04-03T06:24:06;0.50;;;0.50;;
11241;SDS011;5678;52.370;9.006;2023-04-03T06:26:34;0.40;;;0.40;;
11241;SDS011;5678;52.370;9.006;2023-04-03T06:29:02;0.50;;;0.50;;
11241;SDS011;5678;52.370;9.006;2023-04-03T06:31:30;0.37;;;0.37;;
11241;SDS011;5678;52.370;9.006;2023-04-03T06:33:59;0.40;;;0.40;;
11241;SDS011;5678;52.370;9.006;2023-04-03T06:36:27;0.30;;;0.30;;
11241;SDS011;5678;52.370;9.006;2023-04-03T06:38:56;0.60;;;0.60;;
11241;SDS011;5678;52.370;9.006;2023-04-03T06:41:25;0.37;;;0.37;;
11241;SDS011;5678;52.370;9.006;2023-04-03T06:43:53;0.33;;;0.33;;
11241;SDS011;5678;52.370;9.006;2023-04-03T06:46:24;0.40;;;0.40;;
11241;SDS011;5678;52.370;9.006;2023-04-03T06:48:58;0.50;;;0.50;;
11241;SDS011;5678;52.370;9.006;2023-04-03T06:51:30;0.40;;;0.40;;
11241;SDS011;5678;52.370;9.006;2023-04-03T06:53:58;0.40;;;0.40;;
11241;SDS011;5678;52.370;9.006;2023-04-03T06:56:31;0.30;;;0.30;;
11241;SDS011;5678;52.370;9.006;2023-04-03T06:59:00;0.40;;;0.40;;
11241;SDS011;5678;52.370;9.006;2023-04-03T07:01:28;0.40;;;0.40;;
11241;SDS011;5678;52.370;9.006;2023-04-03T07:03:57;0.40;;;0.40;;
11241;SDS011;5678;52.370;9.006;2023-04-03T07:06:24;0.50;;;0.50;;
11241;SDS011;5678;52.370;9.006;2023-04-03T07:08:56;0.60;;;0.60;;
11241;SDS011;5678;52.370;9.006;2023-04-03T07:11:24;0.30;;;0.30;;
11241;SDS011;5678;52.370;9.006;2023-04-03T07:13:53;0.40;;;0.40;;
11241;SDS011;5678;52.370;9.006;2023-04-03T07:16:28;0.50;;;0.50;;
11241;SDS011;5678;52.370;9.006;2023-04-03T07:18:57;0.40;;;0.40;;
11241;SDS011;5678;52.370;9.006;2023-04-03T07:21:25;0.40;;;0.40;;
11241;SDS011;5678;52.370;9.006;2023-04-03T07:23:53;0.30;;;0.30;;
11241;SDS011;5678;52.370;9.006;2023-04-03T07:26:21;0.40;;;0.40;;
11241;SDS011;5678;52.370;9.006;2023-04-03T07:28:49;0.40;;;0.40;;
11241;SDS011;5678;52.370;9.006;2023-04-03T07:31:19;0.30;;;0.30;;
11241;SDS011;5678;52.370;9.006;2023-04-03T07:33:47;0.30;;;0.30;;
11241;SDS011;5678;52.370;9.006;2023-04-03T07:36:17;0.20;;;0.20;;
11241;SDS011;5678;52.370;9.006;2023-04-03T07:38:46;0.40;;;0.40;;
11241;SDS011;5678;52.370;9.006;2023-04-03T07:41:15;0.30;;;0.30;;
11241;SDS011;5678;52.370;9.006;2023-04-03T07:43:46;0.30;;;0.30;;
11241;SDS011;5678;52.370;9.006;2023-04-03T07:46:15;0.40;;;0.40;;
11241;SDS011;5678;52.370;9.006;2023-04-03T07:48:46;0.40;;;0.40;;
11241;SDS011;5678;52.370;9.006;2023-04-03T07:51:14;0.40;;;0.40;;
11241;SDS011;5678;52.370;9.006;2023-04-03T07:53:45;0.30;;;0.30;;
11241;SDS011;5678;52.370;9.006;2023-04-03T07:56:16;0.40;;;0.40;;
11241;SDS011;5678;52.370;9.006;2023-04-03T07:59:12;0.30;;;0.30;;
11241;SDS011;5678;52.370;9.006;2023-04-03T08:01:40;0.40;;;0.40;;
11241;SDS011;5678;52.370;9.006;2023-04-03T08:04:09;0.40;;;0.40;;
11241;SDS011;5678;52.370;9.006;2023-04-03T08:06:37;0.50;;;0.50;;
11241;SDS011;5678;52.370;9.006;2023-04-03T08:09:16;0.30;;;0.30;;
11241;SDS011;5678;52.370;9.006;2023-04-03T08:12:09;0.30;;;0.30;;
11241;SDS011;5678;52.370;9.006;2023-04-03T08:14:37;0.40;;;0.40;;
11241;SDS011;5678;52.370;9.006;2023-04-03T08:17:06;0.40;;;0.40;;
11241;SDS011;5678;52.370;9.006;2023-04-03T08:19:46;0.30;;;0.30;;
11241;SDS011;5678;52.370;9.006;2023-04-03T08:22:13;0.33;;;0.33;;
11241;SDS011;5678;52.370;9.006;2023-04-03T08:24:42;0.40;;;0.40;;
11241;SDS011;5678;52.370;9.006;2023-04-03T08:27:24;0.50;;;0.50;;
11241;SDS011;5678;52.370;9.006;2023-04-03T08:29:53;0.37;;;0.37;;
11241;SDS011;5678;52.370;9.006;2023-04-03T08:32:21;0.30;;;0.30;;
11241;SDS011;5678;52.370;9.006;2023-04-03T08:34:51;0.40;;;0.40;;
11241;SDS011;5678;52.370;9.006;2023-04-03T08:37:29;0.40;;;0.40;;
11241;SDS011;5678;52.370;9.006;2023-04-03T08:39:58;0.47;;;0.47;;
11241;SDS011;5678;52.370;9.006;2023-04-03T08:42:32;1.07;;;1.07;;
11241;SDS011;5678;52.370;9.006;2023-04-03T08:45:10;0.50;;;0.50;;
11241;SDS011;5678;52.370;9.006;2023-04-03T08:47:42;0.50;;;0.50;;
11241;SDS011;5678;52.370;9.006;2023-04-03T08:50:19;0.40;;;0.40;;
11241;SDS011;5678;52.370;9.006;2023-04-03T08:52:49;0.30;;;0.30;;
11241;SDS011;5678;52.370;9.006;2023-04-03T08:55:22;0.30;;;0.30;;
11241;SDS011;5678;52.370;9.006;2023-04-03T08:57:55;0.40;;;0.40;;
11241;SDS011;5678;52.370;9.006;2023-04-03T09:00:28;0.30;;;0.30;;
11241;SDS011;5678;52.370;9.006;2023-04-03T09:03:01;0.30;;;0.30;;
11241;SDS011;5678;52.370;9.006;2023-04-03T09:05:34;0.20;;;0.20;;
11241;SDS011;5678;52.370;9.006;2023-04-03T09:08:12;0.33;;;0.33;;
11241;SDS011;5678;52.370;9.006;2023-04-03T09:10:48;0.40;;;0.40;;
11241;SDS011;5678;52.370;9.006;2023-04-03T09:13:20;0.50;;;0.50;;
11241;SDS011;5678;52.370;9.006;2023-04-03T09:15:55;0.40;;;0.40;;
11241;SDS011;5678;52.370;9.006;2023-04-03T09:18:25;0.30;;;0.30;;
11241;SDS011;5678;52.370;9.006;2023-04-03T09:21:01;0.50;;;0.50;;
11241;SDS011;5678;52.370;9.006;2023-04-03T09:23:36;0.40;;;0.40;;
11241;SDS011;5678;52.370;9.006;2023-04-03T09:26:13;0.30;;;0.30;;
11241;SDS011;5678;52.370;9.006;2023-04-03T09:28:45;0.40;;;0.40;;
11241;SDS011;5678;52.370;9.006;2023-04-03T09:31:19;0.40;;;0.40;;
11241;SDS011;5678;52.370;9.006;2023-04-03T09:33:49;0.40;;;0.40;;
11241;SDS011;5678;52.370;9.006;2023-04-03T09:36:39;0.30;;;0.30;;
11241;SDS011;5678;52.370;9.006;2023-04-03T09:39:10;0.30;;;0.30;;
11241;SDS011;5678;52.370;9.006;2023-04-03T09:41:40;0.30;;;0.30;;
11241;SDS011;5678;52.370;9.006;2023-04-03T09:44:20;0.30;;;0.30;;
11241;SDS011;5678;52.370;9.006;2023-04-03T09:46:49;0.40;;;0.40;;
11241;SDS011;5678;52.370;9.006;2023-04-03T09:49:17;0.30;;;0.30;;
11241;SDS011;5678;52.370;9.006;2023-04-03T09:51:47;0.30;;;0.30;;
11241;SDS011;5678;52.370;9.006;2023-04-03T09:54:25;0.40;;;0.40;;
11241;SDS011;5678;52.370;9.006;2023-04-03T09:57:10;0.30;;;0.30;;
11241;SDS011;5678;52.370;9.006;2023-04-03T09:59:41;0.40;;;0.40;;
11241;SDS011;5678;52.370;9.006;2023-04-03T10:02:32;0.40;;;0.40;;
11241;SDS011;5678;52.370;9.006;2023-04-03T10:05:03;0.33;;;0.33;;
11241;SDS011;5678;52.370;9.006;2023-04-03T10:07:37;0.50;;;0.50;;
11241;SDS011;5678;52.370;9.006;2023-04-03T10:10:18;0.40;;;0.40;;
11241;SDS011;5678;52.370;9.006;2023-04-03T10:12:57;0.40;;;0.40;;
11241;SDS011;5678;52.370;9.006;2023-04-03T10:15:33;0.30;;;0.30;;
11241;SDS011;5678;52.370;9.006;2023-04-03T10:18:10;0.40;;;0.40;;
11241;SDS011;5678;52.370;9.006;2023-04-03T10:20:57;0.30;;;0.30;;
11241;SDS011;5678;52.370;9.006;2023-04-03T10:23:39;0.27;;;0.27;;
11241;SDS011;5678;52.370;9.006;2023-04-03T10:26:14;0.30;;;0.30;;
11241;SDS011;5678;52.370;9.006;2023-04-03T10:28:52;0.30;;;0.30;;
11241;SDS011;5678;52.370;9.006;2023-04-03T10:31:25;0.40;;;0.40;;
11241;SDS011;5678;52.370;9.006;2023-04-03T10:34:02;0.30;;;0.30;;
11241;SDS011;5678;52.370;9.006;2023-04-03T10:36:37;0.30;;;0.30;;
11241;SDS011;5678;52.370;9.006;2023-04-03T10:39:16;0.30;;;0.30;;
11241;SDS011;5678;52.370;9.006;2023-04-03T10:41:56;0.30;;;0.30;;
11241;SDS011;5678;52.370;9.006;2023-04-03T10:44:45;0.40;;;0.40;;
11241;SDS011;5678;52.370;9.006;2023-04-03T10:47:24;0.40;;;0.40;;
11241;SDS011;5678;52.370;9.006;2023-04-03T10:50:01;0.40;;;0.40;;
11241;SDS011;5678;52.370;9.006;2023-04-03T10:52:40;0.40;;;0.40;;
11241;SDS011;5678;52.370;9.006;2023-04-03T10:55:16;0.40;;;0.40;;
11241;SDS011;5678;52.370;9.006;2023-04-03T10:57:57;0.37;;;0.37;;
11241;SDS011;5678;52.370;9.006;2023-04-03T11:00:29;0.50;;;0.50;;
11241;SDS011;5678;52.370;9.006;2023-04-03T11:03:05;0.30;;;0.30;;
11241;SDS011;5678;52.370;9.006;2023-04-03T11:05:36;0.30;;;0.30;;
11241;SDS011;5678;52.370;9.006;2023-04-03T11:08:10;0.40;;;0.40;;
11241;SDS011;5678;52.370;9.006;2023-04-03T11:10:48;0.53;;;0.53;;
11241;SDS011;5678;52.370;9.006;2023-04-03T11:13:19;0.40;;;0.40;;
11241;SDS011;5678;52.370;9.006;2023-04-03T11:15:51;0.50;;;0.50;;
11241;SDS011;5678;52.370;9.006;2023-04-03T11:18:22;0.30;;;0.30;;
11241;SDS011;5678;52.370;9.006;2023-04-03T11:20:57;0.30;;;0.30;;
11241;SDS011;5678;52.370;9.006;2023-04-03T11:23:31;0.40;;;0.40;;
11241;SDS011;5678;52.370;9.006;2023-04-03T11:26:16;0.30;;;0.30;;
11241;SDS011;5678;52.370;9.006;2023-04-03T11:28:47;0.50;;;0.50;;
11241;SDS011;5678;52.370;9.006;2023-04-03T11:31:24;0.33;;;0.33;;
11241;SDS011;5678;52.370;9.006;2023-04-03T11:34:05;0.40;;;0.40;;
11241;SDS011;5678;52.370;9.006;2023-04-03T11:36:44;0.40;;;0.40;;
11241;SDS011;5678;52.370;9.006;2023-04-03T11:39:18;0.30;;;0.30;;
11241;SDS011;5678;52.370;9.006;2023-04-03T11:41:52;0.37;;;0.37;;
11241;SDS011;5678;52.370;9.006;2023-04-03T11:44:36;0.40;;;0.40;;
11241;SDS011;5678;52.370;9.006;2023-04-03T11:47:06;0.40;;;0.40;;
11241;SDS011;5678;52.370;9.006;2023-04-03T11:58:21;0.40;;;0.40;;
11241;SDS011;5678;52.370;9.006;2023-04-03T12:00:51;0.40;;;0.40;;
11241;SDS011;5678;52.370;9.006;2023-04-03T12:03:31;0.30;;;0.30;;
11241;SDS011;5678;52.370;9.006;2023-04-03T12:09:26;0.30;;;0.30;;
11241;SDS011;5678;52.370;9.006;2023-04-03T12:11:57;0.33;;;0.33;;
11241;SDS011;5678;52.370;9.006;2023-04-03T12:14:29;0.40;;;0.40;;
11241;SDS011;5678;52.370;9.006;2023-04-03T12:16:57;0.30;;;0.30;;
11241;SDS011;5678;52.370;9.006;2023-04-03T12:19:31;0.20;;;0.20;;
11241;SDS011;5678;52.370;9.006;2023-04-03T12:22:14;0.40;;;0.40;;
11241;SDS011;5678;52.370;9.006;2023-04-03T12:24:47;0.30;;;0.30;;
11241;SDS011;5678;52.370;9.006;2023-04-03T12:27:19;0.50;;;0.50;;
11241;SDS011;5678;52.370;9.006;2023-04-03T12:29:55;0.40;;;0.40;;
11241;SDS011;5678;52.370;9.006;2023-04-03T12:32:40;0.40;;;0.40;;
11241;SDS011;5678;52.370;9.006;2023-04-03T12:35:36;0.40;;;0.40;;
11241;SDS011;5678;52.370;9.006;2023-04-03T12:38:14;0.30;;;0.30;;
11241;SDS011;5678;52.370;9.006;2023-04-03T12:41:16;0.50;;;0.50;;
11241;SDS011;5678;52.370;9.006;2023-04-03T12:43:51;0.47;;;0.47;;
11241;SDS011;5678;52.370;9.006;2023-04-03T12:46:35;0.30;;;0.30;;
11241;SDS011;5678;52.370;9.006;2023-04-03T12:49:12;0.20;;;0.20;;
11241;SDS011;5678;52.370;9.006;2023-04-03T12:51:50;0.40;;;0.40;;
11241;SDS011;5678;52.370;9.006;2023-04-03T12:54:18;0.30;;;0.30;;
11241;SDS011;5678;52.370;9.006;2023-04-03T12:56:50;0.40;;;0.40;;
11241;SDS011;5678;52.370;9.006;2023-04-03T12:59:19;0.40;;;0.40;;
11241;SDS011;5678;52.370;9.006;2023-04-03T13:01:58;0.30;;;0.30;;
11241;SDS011;5678;52.370;9.006;2023-04-03T13:04:28;0.30;;;0.30;;
11241;SDS011;5678;52.370;9.006;2023-04-03T13:06:58;0.40;;;0.40;;
11241;SDS011;5678;52.370;9.006;2023-04-03T13:09:27;0.30;;;0.30;;
11241;SDS011;5678;52.370;9.006;2023-04-03T13:11:58;0.50;;;0.50;;
11241;SDS011;5678;52.370;9.006;2023-04-03T13:14:30;0.20;;;0.20;;
11241;SDS011;5678;52.370;9.006;2023-04-03T13:17:05;0.40;;;0.40;;
11241;SDS011;5678;52.370;9.006;2023-04-03T13:19:40;0.40;;;0.40;;
11241;SDS011;5678;52.370;9.006;2023-04-03T13:22:23;0.30;;;0.30;;
11241;SDS011;5678;52.370;9.006;2023-04-03T13:24:56;0.40;;;0.40;;
11241;SDS011;5678;52.370;9.006;2023-04-03T13:27:29;0.40;;;0.40;;
11241;SDS011;5678;52.370;9.006;2023-04-03T13:29:59;0.40;;;0.40;;
11241;SDS011;5678;52.370;9.006;2023-04-03T13:32:30;0.37;;;0.37;;
11241;SDS011;5678;52.370;9.006;2023-04-03T13:34:59;0.37;;;0.37;;
11241;SDS011;5678;52.370;9.006;2023-04-03T13:37:52;0.27;;;0.27;;
11241;SDS011;5678;52.370;9.006;2023-04-03T13:40:21;0.40;;;0.40;;
11241;SDS011;5678;52.370;9.006;2023-04-03T13:43:16;0.40;;;0.40;;
11241;SDS011;5678;52.370;9.006;2023-04-03T13:46:00;0.23;;;0.23;;
11241;SDS011;5678;52.370;9.006;2023-04-03T13:48:39;0.40;;;0.40;;
11241;SDS011;5678;52.370;9.006;2023-04-03T13:51:17;0.30;;;0.30;;
11241;SDS011;5678;52.370;9.006;2023-04-03T13:53:47;0.40;;;0.40;;
11241;SDS011;5678;52.370;9.006;2023-04-03T13:56:25;0.30;;;0.30;;
11241;SDS011;5678;52.370;9.006;2023-04-03T13:58:59;0.27;;;0.27;;
11241;SDS011;5678;52.370;9.006;2023-04-03T14:01:37;0.30;;;0.30;;
11241;SDS011;5678;52.370;9.006;2023-04-03T14:04:18;0.30;;;0.30;;
11241;SDS011;5678;52.370;9.006;2023-04-03T14:06:47;0.20;;;0.20;;
11241;SDS011;5678;52.370;9.006;2023-04-03T14:09:16;0.30;;;0.30;;
11241;SDS011;5678;52.370;9.006;2023-04-03T14:11:46;0.30;;;0.30;;
11241;SDS011;5678;52.370;9.006;2023-04-03T14:14:16;0.30;;;0.30;;
11241;SDS011;5678;52.370;9.006;2023-04-03T14:16:47;0.30;;;0.30;;
11241;SDS011;5678;52.370;9.006;2023-04-03T14:19:21;0.30;;;0.30;;
11241;SDS011;5678;52.370;9.006;2023-04-03T14:21:51;0.40;;;0.40;;
11241;SDS011;5678;52.370;9.006;2023-04-03T14:24:20;0.30;;;0.30;;
11241;SDS011;5678;52.370;9.006;2023-04-03T14:26:48;0.30;;;0.30;;
11241;SDS011;5678;52.370;9.006;2023-04-03T14:29:17;0.40;;;0.40;;
11241;SDS011;5678;52.370;9.006;2023-04-03T14:31:47;0.30;;;0.30;;
11241;SDS011;5678;52.370;9.006;2023-04-03T14:34:27;0.40;;;0.40;;
11241;SDS011;5678;52.370;9.006;2023-04-03T14:36:55;0.20;;;0.20;;
11241;SDS011;5678;52.370;9.006;2023-04-03T14:39:23;0.30;;;0.30;;
11241;SDS011;5678;52.370;9.006;2023-04-03T14:41:51;0.30;;;0.30;;
11241;SDS011;5678;52.370;9.006;2023-04-03T14:44:19;0.30;;;0.30;;
11241;SDS011;5678;52.370;9.006;2023-04-03T14:46:47;0.40;;;0.40;;
11241;SDS011;5678;52.370;9.006;2023-04-03T14:49:24;0.40;;;0.40;;
11241;SDS011;5678;52.370;9.006;2023-04-03T14:51:55;0.40;;;0.40;;
11241;SDS011;5678;52.370;9.006;2023-04-03T14:54:24;0.40;;;0.40;;
11241;SDS011;5678;52.370;9.006;2023-04-03T14:56:55;0.30;;;0.30;;
11241;SDS011;5678;52.370;9.006;2023-04-03T14:59:26;0.40;;;0.40;;
11241;SDS011;5678;52.370;9.006;2023-04-03T15:01:54;0.27;;;0.27;;
11241;SDS011;5678;52.370;9.006;2023-04-03T15:04:23;0.30;;;0.30;;
11241;SDS011;5678;52.370;9.006;2023-04-03T15:06:51;0.30;;;0.30;;
11241;SDS011;5678;52.370;9.006;2023-04-03T15:09:22;0.23;;;0.23;;
11241;SDS011;5678;52.370;9.006;2023-04-03T15:11:52;0.40;;;0.40;;
11241;SDS011;5678;52.370;9.006;2023-04-03T15:14:21;0.30;;;0.30;;
11241;SDS011;5678;52.370;9.006;2023-04-03T15:17:02;0.40;;;0.40;;
11241;SDS011;5678;52.370;9.006;2023-04-03T15:19:31;0.40;;;0.40;;
11241;SDS011;5678;52.370;9.006;2023-04-03T15:22:03;0.40;;;0.40;;
11241;SDS011;5678;52.370;9.006;2023-04-03T15:24:32;0.40;;;0.40;;
11241;SDS011;5678;52.370;9.006;2023-04-03T15:27:00;0.33;;;0.33;;
11241;SDS011;5678;52.370;9.006;2023-04-03T15:29:28;0.40;;;0.40;;
11241;SDS011;5678;52.370;9.006;2023-04-03T15:31:56;0.40;;;0.40;;
11241;SDS011;5678;52.370;9.006;2023-04-03T15:34:24;0.30;;;0.30;;
11241;SDS011;5678;52.370;9.006;2023-04-03T15:36:52;0.40;;;0.40;;
11241;SDS011;5678;52.370;9.006;2023-04-03T15:39:20;0.30;;;0.30;;
11241;SDS011;5678;52.370;9.006;2023-04-03T15:41:50;0.37;;;0.37;;